createdAt,value
2018-02-16T00:03:13.500Z,13.80
2018-02-16T00:05:41.811Z,13.90
2018-02-16T00:08:09.386Z,15.33
2018-02-16T00:10:36.948Z,12.93
2018-02-16T00:13:04.498Z,13.33
2018-02-16T00:15:32.157Z,13.33
2018-02-16T00:17:59.699Z,14.10
2018-02-16T00:20:27.300Z,13.60
2018-02-16T00:22:54.840Z,13.67
2018-02-16T00:25:22.776Z,13.53
2018-02-16T00:27:50.404Z,13.90
2018-02-16T00:30:17.965Z,14.00
2018-02-16T00:32:45.547Z,14.20
2018-02-16T00:35:13.088Z,14.20
2018-02-16T00:37:40.661Z,12.60
2018-02-16T00:40:08.241Z,14.67
2018-02-16T00:42:36.644Z,13.90
2018-02-16T00:45:04.185Z,12.67
2018-02-16T00:47:32.183Z,14.37
2018-02-16T00:49:59.732Z,14.63
2018-02-16T00:52:27.271Z,16.10
2018-02-16T00:54:54.844Z,14.97
2018-02-16T00:57:22.384Z,15.00
2018-02-16T00:59:49.989Z,14.03
2018-02-16T01:02:17.514Z,13.80
2018-02-16T01:04:45.105Z,14.37
2018-02-16T01:07:12.641Z,14.20
2018-02-16T01:09:40.208Z,16.17
2018-02-16T01:12:07.745Z,15.70
2018-02-16T01:14:35.648Z,14.80
2018-02-16T01:17:03.189Z,15.00
2018-02-16T01:19:30.720Z,14.20
2018-02-16T01:21:59.100Z,14.77
2018-02-16T01:24:27.413Z,14.73
2018-02-16T01:26:55.049Z,16.20
2018-02-16T01:29:22.592Z,14.20
2018-02-16T01:31:50.943Z,16.03
2018-02-16T01:34:18.488Z,15.13
2018-02-16T01:36:46.390Z,15.80
2018-02-16T01:39:14.698Z,16.03
2018-02-16T01:41:42.264Z,18.13
2018-02-16T01:44:09.859Z,15.40
2018-02-16T01:46:37.485Z,16.10
2018-02-16T01:49:05.056Z,15.97
2018-02-16T01:51:32.603Z,16.37
2018-02-16T01:54:00.175Z,17.00
2018-02-16T01:56:27.731Z,17.23
2018-02-16T01:58:55.324Z,15.13
2018-02-16T02:01:22.902Z,16.67
2018-02-16T02:03:51.562Z,17.80
2018-02-16T02:06:19.112Z,15.63
2018-02-16T02:08:46.643Z,16.40
2018-02-16T02:11:14.261Z,9.77
2018-02-16T02:13:41.796Z,16.60
2018-02-16T02:16:09.373Z,17.47
2018-02-16T02:18:36.905Z,17.17
2018-02-16T02:21:04.476Z,18.73
2018-02-16T02:23:32.016Z,18.17
2018-02-16T02:25:59.889Z,18.07
2018-02-16T02:28:27.529Z,18.90
2018-02-16T02:30:55.064Z,19.03
2018-02-16T02:33:23.413Z,18.50
2018-02-16T02:35:50.994Z,17.27
2018-02-16T02:38:19.832Z,16.53
2018-02-16T02:40:47.433Z,15.93
2018-02-16T02:43:14.972Z,18.17
2018-02-16T02:45:42.557Z,18.30
2018-02-16T02:48:10.097Z,16.80
2018-02-16T02:50:37.693Z,17.73
2018-02-16T02:53:05.218Z,6.17
2018-02-16T02:55:32.797Z,19.57
2018-02-16T02:58:00.328Z,13.00
2018-02-16T03:00:27.929Z,17.80
2018-02-16T03:02:55.469Z,17.03
2018-02-16T03:05:23.849Z,19.40
2018-02-16T03:07:51.384Z,19.20
2018-02-16T03:10:19.277Z,18.77
2018-02-16T03:12:47.590Z,20.40
2018-02-16T03:15:15.130Z,19.43
2018-02-16T03:17:42.703Z,19.50
2018-02-16T03:20:10.233Z,20.43
2018-02-16T03:22:37.893Z,20.63
2018-02-16T03:25:05.450Z,21.70
2018-02-16T03:27:33.786Z,20.07
2018-02-16T03:30:01.393Z,19.93
2018-02-16T03:32:30.045Z,21.03
2018-02-16T03:34:57.673Z,21.73
2018-02-16T03:37:25.205Z,20.47
2018-02-16T03:39:53.554Z,21.30
2018-02-16T03:42:21.102Z,19.97
2018-02-16T03:44:48.692Z,21.30
2018-02-16T03:47:16.236Z,19.10
2018-02-16T03:49:43.833Z,19.73
2018-02-16T03:52:11.378Z,19.40
2018-02-16T03:54:40.009Z,20.83
2018-02-16T03:57:07.562Z,18.93
2018-02-16T03:59:35.104Z,22.63
2018-02-16T04:02:02.695Z,20.67
2018-02-16T04:04:30.238Z,20.87
2018-02-16T04:06:58.112Z,20.47
2018-02-16T04:09:25.651Z,21.20
2018-02-16T04:11:53.183Z,20.73
2018-02-16T04:14:20.756Z,20.13
2018-02-16T04:16:48.294Z,21.20
2018-02-16T04:19:15.920Z,19.93
2018-02-16T04:21:43.448Z,20.17
2018-02-16T04:24:11.021Z,21.30
2018-02-16T04:26:38.556Z,20.63
2018-02-16T04:29:06.458Z,21.60
2018-02-16T04:31:33.989Z,18.93
2018-02-16T04:34:01.528Z,20.17
2018-02-16T04:36:29.112Z,22.10
2018-02-16T04:38:56.653Z,21.67
2018-02-16T04:41:24.231Z,22.50
2018-02-16T04:43:51.769Z,21.00
2018-02-16T04:46:19.759Z,20.50
2018-02-16T04:48:47.319Z,21.37
2018-02-16T04:51:14.865Z,22.33
2018-02-16T04:53:42.444Z,19.47
2018-02-16T04:56:09.984Z,19.23
2018-02-16T04:58:37.760Z,19.90
2018-02-16T05:01:05.328Z,22.53
2018-02-16T05:03:32.927Z,19.40
2018-02-16T05:06:00.476Z,21.63
2018-02-16T05:08:28.421Z,20.93
2018-02-16T05:10:55.953Z,21.80
2018-02-16T05:13:23.492Z,20.40
2018-02-16T05:15:51.075Z,20.33
2018-02-16T05:18:18.611Z,21.83
2018-02-16T05:20:46.177Z,21.80
2018-02-16T05:23:14.479Z,21.90
2018-02-16T05:25:42.053Z,22.50
2018-02-16T05:28:09.588Z,21.63
2018-02-16T05:30:37.772Z,24.30
2018-02-16T05:33:05.313Z,21.73
2018-02-16T05:35:32.872Z,21.57
2018-02-16T05:38:00.484Z,22.90
2018-02-16T05:40:28.044Z,22.20
2018-02-16T05:42:55.710Z,21.90
2018-02-16T05:45:23.245Z,22.30
2018-02-16T05:47:51.229Z,21.67
2018-02-16T05:50:18.774Z,23.30
2018-02-16T05:52:46.312Z,22.47
2018-02-16T05:55:13.936Z,20.83
2018-02-16T05:57:41.528Z,20.80
2018-02-16T06:00:09.418Z,22.17
2018-02-16T06:02:36.968Z,22.60
2018-02-16T06:05:04.501Z,22.57
2018-02-16T06:07:32.848Z,23.20
2018-02-16T06:10:00.391Z,24.27
2018-02-16T06:12:27.967Z,23.93
2018-02-16T06:14:55.543Z,22.37
2018-02-16T06:17:23.897Z,22.13
2018-02-16T06:19:51.461Z,21.43
2018-02-16T06:22:21.663Z,25.23
2018-02-16T06:24:49.257Z,23.10
2018-02-16T06:27:16.800Z,23.97
2018-02-16T06:29:44.384Z,24.10
2018-02-16T06:32:11.925Z,21.17
2018-02-16T06:34:39.559Z,23.97
2018-02-16T06:37:07.111Z,23.07
2018-02-16T06:39:34.681Z,24.37
2018-02-16T06:42:02.214Z,24.10
2018-02-16T06:44:30.070Z,23.20
2018-02-16T06:46:57.636Z,23.07
2018-02-16T06:49:25.176Z,22.83
2018-02-16T06:51:53.517Z,20.37
2018-02-16T06:54:21.052Z,24.47
2018-02-16T06:56:48.629Z,22.00
2018-02-16T06:59:16.168Z,23.37
2018-02-16T07:01:43.732Z,22.97
2018-02-16T07:04:11.281Z,18.27
2018-02-16T07:06:38.853Z,21.47
2018-02-16T07:09:06.412Z,25.53
2018-02-16T07:11:34.280Z,24.20
2018-02-16T07:14:01.845Z,25.23
2018-02-16T07:16:29.384Z,22.10
2018-02-16T07:18:56.968Z,23.20
2018-02-16T07:21:24.509Z,22.03
2018-02-16T07:23:52.078Z,22.37
2018-02-16T07:26:19.625Z,23.50
2018-02-16T07:28:47.349Z,19.33
2018-02-16T07:31:14.966Z,23.07
2018-02-16T07:33:42.558Z,23.33
2018-02-16T07:36:10.888Z,24.00
2018-02-16T07:38:38.425Z,21.23
2018-02-16T07:41:05.999Z,21.57
2018-02-16T07:43:33.559Z,23.90
2018-02-16T07:46:01.358Z,26.60
2018-02-16T07:48:28.908Z,20.70
2018-02-16T07:50:56.748Z,23.10
2018-02-16T07:53:24.287Z,24.10
2018-02-16T07:55:51.822Z,23.27
2018-02-16T07:58:20.167Z,24.23
2018-02-16T08:00:47.712Z,21.50
2018-02-16T08:03:15.281Z,23.87
2018-02-16T08:05:42.817Z,17.60
2018-02-16T08:08:10.701Z,23.40
2018-02-16T08:10:38.254Z,23.40
2018-02-16T08:13:05.808Z,21.30
2018-02-16T08:15:33.384Z,21.10
2018-02-16T08:18:00.927Z,20.33
2018-02-16T08:20:28.497Z,22.83
2018-02-16T08:22:56.041Z,24.13
2018-02-16T08:25:23.619Z,19.87
2018-02-16T08:27:51.203Z,20.53
2018-02-16T08:30:19.249Z,22.37
2018-02-16T08:32:46.799Z,18.40
2018-02-16T08:35:14.328Z,20.50
2018-02-16T08:37:42.039Z,20.47
2018-02-16T08:40:09.597Z,14.33
2018-02-16T08:42:37.197Z,18.50
2018-02-16T08:45:05.515Z,21.50
2018-02-16T08:47:33.088Z,20.87
2018-02-16T08:50:00.681Z,19.27
2018-02-16T08:52:28.526Z,14.63
2018-02-16T08:54:56.076Z,20.70
2018-02-16T08:57:23.905Z,21.53
2018-02-16T08:59:51.484Z,16.10
2018-02-16T09:02:19.025Z,18.57
2018-02-16T09:04:48.131Z,19.57
2018-02-16T09:07:15.688Z,18.30
2018-02-16T09:09:43.232Z,17.20
2018-02-16T09:12:10.985Z,19.07
2018-02-16T09:14:39.283Z,19.93
2018-02-16T09:17:08.736Z,17.83
2018-02-16T09:19:36.276Z,17.50
2018-02-16T09:22:04.251Z,18.37
2018-02-16T09:24:31.812Z,18.63
2018-02-16T09:26:59.610Z,13.80
2018-02-16T09:29:27.968Z,17.90
2018-02-16T09:31:55.517Z,17.47
2018-02-16T09:34:23.110Z,19.53
2018-02-16T09:36:51.049Z,19.40
2018-02-16T09:39:19.564Z,18.13
2018-02-16T09:41:47.896Z,16.20
2018-02-16T09:44:15.866Z,17.80
2018-02-16T09:46:43.418Z,16.23
2018-02-16T09:49:11.020Z,18.07
2018-02-16T09:51:39.365Z,12.47
2018-02-16T09:54:06.913Z,17.27
2018-02-16T09:56:34.497Z,16.80
2018-02-16T09:59:02.036Z,17.77
2018-02-16T10:01:29.901Z,18.63
2018-02-16T10:03:57.448Z,16.80
2018-02-16T10:06:24.999Z,17.97
2018-02-16T10:08:52.578Z,16.17
2018-02-16T10:11:20.225Z,17.10
2018-02-16T10:13:47.868Z,16.73
2018-02-16T10:16:15.421Z,16.10
2018-02-16T10:18:43.012Z,15.00
2018-02-16T10:21:10.762Z,15.47
2018-02-16T10:23:38.345Z,13.70
2018-02-16T10:26:05.901Z,14.80
2018-02-16T10:28:33.748Z,10.57
2018-02-16T10:31:01.354Z,16.07
2018-02-16T10:33:28.920Z,14.53
2018-02-16T10:35:56.497Z,15.53
2018-02-16T10:38:24.218Z,17.37
2018-02-16T10:40:51.811Z,15.70
2018-02-16T10:43:19.373Z,13.50
2018-02-16T10:45:48.012Z,15.77
2018-02-16T10:48:15.548Z,17.30
2018-02-16T10:50:43.106Z,15.37
2018-02-16T10:53:10.684Z,15.10
2018-02-16T10:55:38.227Z,14.70
2018-02-16T10:58:06.130Z,15.43
2018-02-16T11:00:39.225Z,14.27
2018-02-16T11:03:12.712Z,11.03
2018-02-16T11:05:46.685Z,13.80
2018-02-16T11:08:20.126Z,14.30
2018-02-16T11:10:47.677Z,10.93
2018-02-16T11:13:15.237Z,12.50
2018-02-16T11:15:42.819Z,15.43
2018-02-16T11:18:10.357Z,13.83
2018-02-16T11:20:37.991Z,13.30
2018-02-16T11:23:05.589Z,10.13
2018-02-16T11:25:34.955Z,12.50
2018-02-16T11:28:02.493Z,12.00
2018-02-16T11:30:30.409Z,10.23
2018-02-16T11:32:58.094Z,6.70
2018-02-16T11:35:25.650Z,9.83
2018-02-16T11:37:53.232Z,11.60
2018-02-16T11:40:20.918Z,9.47
2018-02-16T11:42:49.270Z,10.20
2018-02-16T11:45:16.933Z,8.07
2018-02-16T11:47:45.266Z,9.70
2018-02-16T11:50:12.818Z,8.83
2018-02-16T11:52:40.411Z,8.40
2018-02-16T11:55:07.952Z,9.33
2018-02-16T11:57:35.536Z,8.37
2018-02-16T12:00:03.111Z,9.03
2018-02-16T12:02:31.751Z,8.10
2018-02-16T12:04:59.393Z,9.23
2018-02-16T12:07:26.932Z,9.20
2018-02-16T12:09:54.506Z,7.70
2018-02-16T12:12:22.063Z,8.20
2018-02-16T12:14:49.665Z,8.20
2018-02-16T12:17:17.225Z,7.33
2018-02-16T12:19:45.359Z,9.03
2018-02-16T12:22:12.889Z,8.60
2018-02-16T12:24:40.440Z,8.27
2018-02-16T12:27:08.210Z,9.87
2018-02-16T12:29:36.509Z,7.23
2018-02-16T12:32:04.097Z,9.17
2018-02-16T12:34:31.738Z,8.80
2018-02-16T12:36:59.356Z,6.73
2018-02-16T12:39:26.888Z,7.90
2018-02-16T12:41:54.488Z,6.83
2018-02-16T12:44:22.020Z,9.33
2018-02-16T12:46:49.855Z,7.70
2018-02-16T12:49:17.387Z,6.60
2018-02-16T12:51:44.933Z,6.73
2018-02-16T12:54:12.622Z,7.07
2018-02-16T12:56:40.180Z,6.63
2018-02-16T12:59:07.793Z,7.67
2018-02-16T13:01:35.336Z,4.43
2018-02-16T13:04:03.066Z,8.00
2018-02-16T13:06:30.736Z,7.50
2018-02-16T13:08:58.319Z,6.93
2018-02-16T13:11:25.917Z,8.07
2018-02-16T13:13:53.492Z,8.17
2018-02-16T13:16:21.022Z,8.50
2018-02-16T13:18:49.058Z,8.40
2018-02-16T13:21:16.556Z,9.80
2018-02-16T13:23:44.853Z,7.70
2018-02-16T13:26:12.444Z,9.60
2018-02-16T13:28:39.992Z,10.13
2018-02-16T13:31:07.979Z,10.77
2018-02-16T13:33:35.530Z,8.70
2018-02-16T13:36:03.079Z,10.67
2018-02-16T13:38:30.653Z,9.10
2018-02-16T13:40:58.211Z,11.83
2018-02-16T13:43:25.789Z,10.87
2018-02-16T13:45:53.326Z,7.67
2018-02-16T13:48:20.916Z,10.80
2018-02-16T13:50:48.461Z,9.20
2018-02-16T13:53:16.575Z,7.30
2018-02-16T13:55:44.126Z,7.83
2018-02-16T13:58:11.689Z,7.90
2018-02-16T14:00:40.050Z,7.10
2018-02-16T14:03:08.311Z,8.40
2018-02-16T14:05:35.915Z,5.47
2018-02-16T14:08:04.554Z,7.03
2018-02-16T14:10:32.146Z,12.50
2018-02-16T14:12:59.707Z,5.10
2018-02-16T14:15:28.038Z,9.43
2018-02-16T14:17:55.568Z,8.80
2018-02-16T14:20:23.565Z,8.50
2018-02-16T14:22:51.117Z,6.43
2018-02-16T14:25:18.671Z,6.17
2018-02-16T14:27:46.249Z,9.50
2018-02-16T14:30:13.806Z,10.00
2018-02-16T14:32:41.780Z,9.37
2018-02-16T14:35:09.317Z,9.87
2018-02-16T14:37:36.874Z,10.40
2018-02-16T14:40:04.517Z,10.70
2018-02-16T14:42:32.202Z,8.60
2018-02-16T14:44:59.790Z,7.03
2018-02-16T14:47:27.324Z,9.57
2018-02-16T14:49:55.208Z,10.80
2018-02-16T14:52:22.750Z,12.63
2018-02-16T14:54:50.306Z,11.77
2018-02-16T14:57:17.897Z,11.83
2018-02-16T14:59:45.532Z,12.30
2018-02-16T15:02:13.135Z,10.10
2018-02-16T15:04:40.730Z,12.10
2018-02-16T15:07:09.090Z,12.10
2018-02-16T15:09:37.391Z,10.87
2018-02-16T15:12:04.985Z,11.00
2018-02-16T15:14:32.565Z,13.00
2018-02-16T15:17:00.528Z,11.27
2018-02-16T15:19:28.081Z,12.53
2018-02-16T15:21:55.651Z,13.00
2018-02-16T15:24:23.247Z,11.60
2018-02-16T15:26:50.800Z,11.37
2018-02-16T15:29:18.390Z,13.53
2018-02-16T15:31:45.947Z,13.43
2018-02-16T15:34:13.527Z,12.43
2018-02-16T15:36:41.068Z,12.60
2018-02-16T15:39:08.948Z,13.67
2018-02-16T15:41:36.509Z,11.73
2018-02-16T15:44:04.061Z,11.53
2018-02-16T15:46:31.641Z,10.83
2018-02-16T15:48:59.193Z,10.83
2018-02-16T15:51:26.912Z,10.47
2018-02-16T15:53:55.338Z,11.30
2018-02-16T15:56:23.748Z,11.73
2018-02-16T15:58:51.281Z,12.00
2018-02-16T16:01:18.856Z,11.10
2018-02-16T16:03:46.386Z,10.97
2018-02-16T16:06:13.943Z,11.63
2018-02-16T16:08:41.540Z,12.50
2018-02-16T16:11:09.183Z,11.73
2018-02-16T16:13:36.774Z,10.37
2018-02-16T16:16:05.079Z,12.60
2018-02-16T16:18:32.669Z,10.57
2018-02-16T16:21:00.217Z,12.10
2018-02-16T16:23:28.102Z,14.03
2018-02-16T16:25:55.656Z,12.23
2018-02-16T16:28:23.219Z,14.50
2018-02-16T16:30:50.801Z,14.00
2018-02-16T16:33:18.348Z,13.13
2018-02-16T16:35:45.920Z,14.83
2018-02-16T16:38:13.463Z,13.87
2018-02-16T16:40:41.044Z,12.80
2018-02-16T16:43:08.588Z,12.23
2018-02-16T16:45:36.162Z,13.60
2018-02-16T16:48:03.710Z,12.43
2018-02-16T16:50:31.538Z,15.03
2018-02-16T16:52:59.111Z,13.83
2018-02-16T16:55:27.082Z,14.00
2018-02-16T16:57:54.625Z,15.43
2018-02-16T17:00:22.225Z,18.43
2018-02-16T17:02:49.847Z,15.13
2018-02-16T17:05:17.507Z,15.37
2018-02-16T17:07:45.106Z,14.60
2018-02-16T17:10:12.640Z,15.47
2018-02-16T17:12:40.212Z,14.70
2018-02-16T17:15:07.752Z,16.00
2018-02-16T17:17:35.802Z,13.87
2018-02-16T17:20:03.341Z,17.93
2018-02-16T17:22:31.681Z,18.00
2018-02-16T17:24:59.285Z,17.67
2018-02-16T17:27:27.777Z,17.40
2018-02-16T17:29:55.365Z,17.83
2018-02-16T17:32:22.910Z,13.93
2018-02-16T17:34:50.533Z,12.90
2018-02-16T17:37:18.845Z,14.00
2018-02-16T17:39:46.801Z,15.57
2018-02-16T17:42:14.338Z,13.20
2018-02-16T17:44:41.881Z,15.17
2018-02-16T17:47:09.503Z,15.50
2018-02-16T17:49:37.058Z,15.17
2018-02-16T17:52:04.645Z,17.00
2018-02-16T17:54:32.185Z,16.97
2018-02-16T17:56:59.756Z,16.60
2018-02-16T17:59:27.363Z,16.10
2018-02-16T18:01:55.725Z,15.60
2018-02-16T18:04:23.310Z,16.00
2018-02-16T18:06:51.176Z,15.97
2018-02-16T18:09:19.493Z,15.20
2018-02-16T18:11:47.047Z,15.00
2018-02-16T18:14:14.696Z,14.20
2018-02-16T18:16:42.462Z,16.40
2018-02-16T18:19:10.053Z,17.83
2018-02-16T18:21:37.591Z,19.67
2018-02-16T18:24:05.169Z,19.87
2018-02-16T18:26:32.729Z,17.70
2018-02-16T18:29:00.305Z,21.50
2018-02-16T18:31:27.919Z,20.37
2018-02-16T18:33:55.461Z,16.70
2018-02-16T18:36:23.038Z,17.53
2018-02-16T18:38:50.588Z,16.33
2018-02-16T18:41:18.183Z,14.03
2018-02-16T18:43:45.737Z,14.10
2018-02-16T18:46:13.382Z,14.83
2018-02-16T18:48:40.946Z,13.90
2018-02-16T18:51:08.538Z,14.63
2018-02-16T18:53:36.161Z,15.37
2018-02-16T18:56:04.151Z,14.97
2018-02-16T18:58:31.688Z,15.67
2018-02-16T19:00:59.376Z,16.97
2018-02-16T19:03:26.966Z,14.97
2018-02-16T19:05:55.280Z,13.53
2018-02-16T19:08:22.893Z,15.00
2018-02-16T19:10:50.436Z,14.80
2018-02-16T19:13:18.618Z,13.53
2018-02-16T19:15:46.169Z,14.80
2018-02-16T19:18:13.881Z,17.77
2018-02-16T19:20:41.670Z,15.80
2018-02-16T19:23:09.223Z,15.17
2018-02-16T19:25:37.065Z,14.40
2018-02-16T19:28:05.380Z,15.83
2018-02-16T19:30:32.931Z,14.83
2018-02-16T19:33:00.538Z,14.10
2018-02-16T19:35:28.078Z,14.23
2018-02-16T19:37:55.661Z,13.33
2018-02-16T19:40:23.197Z,13.20
2018-02-16T19:42:50.772Z,13.20
2018-02-16T19:45:18.329Z,15.07
2018-02-16T19:47:46.285Z,14.57
2018-02-16T19:50:13.858Z,15.93
2018-02-16T19:52:41.405Z,15.30
2018-02-16T19:55:08.994Z,14.93
2018-02-16T19:57:36.565Z,19.60
2018-02-16T20:00:04.897Z,13.27
2018-02-16T20:02:32.503Z,15.57
2018-02-16T20:05:00.070Z,15.03
2018-02-16T20:07:27.623Z,14.07
2018-02-16T20:09:55.667Z,13.13
2018-02-16T20:12:23.215Z,14.33
2018-02-16T20:14:50.769Z,13.17
2018-02-16T20:17:18.344Z,12.60
2018-02-16T20:19:45.888Z,13.20
2018-02-16T20:22:13.493Z,14.70
2018-02-16T20:24:41.805Z,13.63
2018-02-16T20:27:10.510Z,13.40
2018-02-16T20:29:38.036Z,12.20
2018-02-16T20:32:05.584Z,13.53
2018-02-16T20:34:33.302Z,11.97
2018-02-16T20:37:00.842Z,12.40
2018-02-16T20:39:28.419Z,11.93
2018-02-16T20:41:55.966Z,12.63
2018-02-16T20:44:23.548Z,12.70
2018-02-16T20:46:51.099Z,12.43
2018-02-16T20:49:18.717Z,14.33
2018-02-16T20:51:46.280Z,14.20
2018-02-16T20:54:14.189Z,13.43
2018-02-16T20:56:41.740Z,11.83
2018-02-16T20:59:09.268Z,13.73
2018-02-16T21:01:36.857Z,14.53
2018-02-16T21:04:04.465Z,12.73
2018-02-16T21:06:32.855Z,14.03
2018-02-16T21:09:00.509Z,13.47
2018-02-16T21:11:28.105Z,11.80
2018-02-16T21:13:56.409Z,12.63
2018-02-16T21:16:24.010Z,11.67
2018-02-16T21:18:51.586Z,13.67
2018-02-16T21:21:19.189Z,12.67
2018-02-16T21:23:46.762Z,12.43
2018-02-16T21:26:15.159Z,11.73
2018-02-16T21:28:43.003Z,12.53
2018-02-16T21:31:10.560Z,14.60
2018-02-16T21:33:38.112Z,14.50
2018-02-16T21:36:05.701Z,14.60
2018-02-16T21:38:34.004Z,14.10
2018-02-16T21:41:01.907Z,13.30
2018-02-16T21:43:29.441Z,13.90
2018-02-16T21:45:56.981Z,14.50
2018-02-16T21:48:24.564Z,14.03
2018-02-16T21:50:52.126Z,14.97
2018-02-16T21:53:19.711Z,13.80
2018-02-16T21:55:47.262Z,15.30
2018-02-16T21:58:14.857Z,16.43
2018-02-16T22:00:43.156Z,14.60
2018-02-16T22:03:10.733Z,15.87
2018-02-16T22:05:38.280Z,14.47
2018-02-16T22:08:06.345Z,14.60
2018-02-16T22:10:33.888Z,14.07
2018-02-16T22:13:01.473Z,16.73
2018-02-16T22:15:29.082Z,14.53
2018-02-16T22:17:56.632Z,16.10
2018-02-16T22:20:24.221Z,15.37
2018-02-16T22:22:52.561Z,14.17
2018-02-16T22:25:20.180Z,14.10
2018-02-16T22:27:48.562Z,14.83
2018-02-16T22:30:16.457Z,12.67
2018-02-16T22:32:43.996Z,14.70
2018-02-16T22:35:11.663Z,14.60
2018-02-16T22:37:39.250Z,15.27
2018-02-16T22:40:06.788Z,14.77
2018-02-16T22:42:34.395Z,14.90
2018-02-16T22:45:01.930Z,15.63
2018-02-16T22:47:29.610Z,14.90
2018-02-16T22:49:57.142Z,14.43
2018-02-16T22:52:24.754Z,14.93
2018-02-16T22:54:53.041Z,17.13
2018-02-16T22:57:20.972Z,13.90
2018-02-16T22:59:48.518Z,13.93
2018-02-16T23:02:16.073Z,14.50
2018-02-16T23:04:43.705Z,15.80
2018-02-16T23:07:11.247Z,15.27
2018-02-16T23:09:38.819Z,16.00
2018-02-16T23:12:07.077Z,15.23
2018-02-16T23:14:34.668Z,14.80
2018-02-16T23:17:02.215Z,13.40
2018-02-16T23:19:30.111Z,15.90
2018-02-16T23:21:59.392Z,15.30
2018-02-16T23:24:26.941Z,15.07
2018-02-16T23:26:54.539Z,13.30
2018-02-16T23:29:22.117Z,11.30
2018-02-16T23:31:49.697Z,14.90
2018-02-16T23:34:17.993Z,14.50
2018-02-16T23:36:45.840Z,13.63
2018-02-16T23:39:14.178Z,11.63
2018-02-16T23:41:41.885Z,14.50
2018-02-16T23:44:09.455Z,15.20
2018-02-16T23:46:36.997Z,14.03
2018-02-16T23:49:04.578Z,14.57
2018-02-16T23:51:32.118Z,13.30
2018-02-16T23:53:59.709Z,14.00
2018-02-16T23:56:27.258Z,17.13
2018-02-16T23:58:55.309Z,16.10
